createdAt,value
2022-10-23T00:00:08.586Z,99551.03
2022-10-23T00:00:20.628Z,99552.88
2022-10-23T00:00:33.102Z,99548.63
2022-10-23T00:00:45.206Z,99548.78
2022-10-23T00:00:57.161Z,99544.50
2022-10-23T00:01:17.711Z,99545.81
2022-10-23T00:01:41.004Z,99545.03
2022-10-23T00:01:52.943Z,99546.75
2022-10-23T00:02:04.998Z,99547.38
2022-10-23T00:02:17.048Z,99545.50
2022-10-23T00:02:29.171Z,99544.50
2022-10-23T00:02:41.671Z,99542.69
2022-10-23T00:02:54.789Z,99537.47
2022-10-23T00:03:06.827Z,99545.28
2022-10-23T00:03:18.772Z,99550.44
2022-10-23T00:03:30.708Z,99541.78
2022-10-23T00:03:43.160Z,99542.56
2022-10-23T00:04:00.215Z,99544.50
2022-10-23T00:04:21.610Z,99542.97
2022-10-23T00:04:33.550Z,99542.84
2022-10-23T00:04:45.475Z,99543.69
2022-10-23T00:04:57.383Z,99552.34
2022-10-23T00:05:09.440Z,99537.63
2022-10-23T00:05:22.590Z,99548.06
2022-10-23T00:05:34.524Z,99548.91
2022-10-23T00:05:46.474Z,99557.50
2022-10-23T00:05:58.465Z,99544.50
2022-10-23T00:06:11.653Z,99547.22
2022-10-23T00:06:25.005Z,99549.72
2022-10-23T00:06:37.150Z,99549.72
2022-10-23T00:06:49.668Z,99544.50
2022-10-23T00:07:01.583Z,99538.31
2022-10-23T00:07:13.536Z,99544.38
2022-10-23T00:07:25.562Z,99548.69
2022-10-23T00:07:37.682Z,99546.06
2022-10-23T00:07:54.714Z,99542.44
2022-10-23T00:08:07.082Z,99547.50
2022-10-23T00:08:19.016Z,99543.09
2022-10-23T00:08:31.050Z,99544.88
2022-10-23T00:08:43.727Z,99547.50
2022-10-23T00:08:56.371Z,99551.09
2022-10-23T00:09:09.731Z,99549.31
2022-10-23T00:09:23.676Z,99543.41
2022-10-23T00:09:35.630Z,99551.22
2022-10-23T00:09:47.600Z,99544.25
2022-10-23T00:09:59.526Z,99549.47
2022-10-23T00:10:11.652Z,99545.38
2022-10-23T00:10:25.368Z,99549.72
2022-10-23T00:10:41.859Z,99546.22
2022-10-23T00:10:53.798Z,99545.28
2022-10-23T00:11:21.904Z,99544.38
2022-10-23T00:11:35.177Z,99547.91
2022-10-23T00:11:48.550Z,99547.78
2022-10-23T00:12:00.476Z,99546.94
2022-10-23T00:12:12.424Z,99544.31
2022-10-23T00:12:24.356Z,99547.78
2022-10-23T00:12:36.316Z,99542.44
2022-10-23T00:12:49.253Z,99538.22
2022-10-23T00:13:01.317Z,99542.56
2022-10-23T00:13:13.246Z,99544.25
2022-10-23T00:13:25.254Z,99537.19
2022-10-23T00:13:37.714Z,99544.09
2022-10-23T00:13:50.763Z,99541.44
2022-10-23T00:14:05.882Z,99543.88
2022-10-23T00:14:21.266Z,99539.53
2022-10-23T00:14:33.299Z,99536.91
2022-10-23T00:14:45.238Z,99543.97
2022-10-23T00:14:57.216Z,99531.81
2022-10-23T00:15:09.590Z,99544.88
2022-10-23T00:15:23.035Z,99532.75
2022-10-23T00:15:36.520Z,99537.19
2022-10-23T00:15:48.443Z,99534.59
2022-10-23T00:16:00.685Z,99545.94
2022-10-23T00:16:12.653Z,99534.59
2022-10-23T00:16:24.593Z,99537.19
2022-10-23T00:16:37.041Z,99536.28
2022-10-23T00:16:48.968Z,99532.75
2022-10-23T00:17:00.882Z,99537.97
2022-10-23T00:17:12.936Z,99541.44
2022-10-23T00:17:24.945Z,99543.19
2022-10-23T00:17:36.853Z,99537.03
2022-10-23T00:17:49.394Z,99531.00
2022-10-23T00:18:01.461Z,99531.03
2022-10-23T00:18:13.422Z,99533.66
2022-10-23T00:18:25.353Z,99528.44
2022-10-23T00:18:38.237Z,99534.50
2022-10-23T00:18:50.743Z,99537.19
2022-10-23T00:19:03.502Z,99532.88
2022-10-23T00:19:15.599Z,99535.44
2022-10-23T00:19:27.498Z,99533.72
2022-10-23T00:19:39.447Z,99531.28
2022-10-23T00:19:51.378Z,99532.94
2022-10-23T00:20:04.317Z,99539.16
2022-10-23T00:20:17.055Z,99533.00
2022-10-23T00:20:28.992Z,99532.25
2022-10-23T00:20:40.886Z,99540.06
2022-10-23T00:20:52.849Z,99531.47
2022-10-23T00:21:06.605Z,99528.00
2022-10-23T00:21:18.607Z,99529.63
2022-10-23T00:21:30.576Z,99529.50
2022-10-23T00:21:42.771Z,99531.28
2022-10-23T00:21:54.719Z,99532.09
2022-10-23T00:22:08.547Z,99531.28
2022-10-23T00:22:20.755Z,99526.94
2022-10-23T00:22:32.696Z,99521.78
2022-10-23T00:22:44.875Z,99520.06
2022-10-23T00:22:56.767Z,99523.50
2022-10-23T00:23:08.730Z,99526.13
2022-10-23T00:23:20.692Z,99521.78
2022-10-23T00:23:32.656Z,99526.06
2022-10-23T00:23:45.305Z,99523.50
2022-10-23T00:23:57.418Z,99523.50
2022-10-23T00:24:26.405Z,99521.53
2022-10-23T00:24:38.285Z,99519.78
2022-10-23T00:24:50.282Z,99517.88
2022-10-23T00:25:06.195Z,99523.00
2022-10-23T00:25:18.577Z,99517.72
2022-10-23T00:25:30.586Z,99521.25
2022-10-23T00:25:42.639Z,99522.22
2022-10-23T00:25:54.602Z,99524.06
2022-10-23T00:26:08.206Z,99526.00
2022-10-23T00:26:20.589Z,99519.69
2022-10-23T00:26:32.614Z,99518.84
2022-10-23T00:26:44.793Z,99522.31
2022-10-23T00:26:56.701Z,99525.81
2022-10-23T00:27:08.974Z,99518.84
2022-10-23T00:27:20.895Z,99524.94
2022-10-23T00:27:33.385Z,99530.00
2022-10-23T00:27:45.454Z,99524.75
2022-10-23T00:27:57.369Z,99519.53
2022-10-23T00:28:09.344Z,99524.84
2022-10-23T00:28:21.393Z,99515.16
2022-10-23T00:28:34.082Z,99516.03
2022-10-23T00:28:50.093Z,99522.22
2022-10-23T00:29:02.076Z,99520.47
2022-10-23T00:29:13.973Z,99523.00
2022-10-23T00:29:28.037Z,99518.66
2022-10-23T00:29:39.929Z,99517.72
2022-10-23T00:29:51.877Z,99515.09
2022-10-23T00:30:04.981Z,99514.47
2022-10-23T00:30:16.886Z,99521.38
2022-10-23T00:30:28.804Z,99517.00
2022-10-23T00:30:40.808Z,99517.09
2022-10-23T00:30:52.795Z,99518.84
2022-10-23T00:31:05.913Z,99523.22
2022-10-23T00:31:19.836Z,99519.69
2022-10-23T00:31:32.290Z,99512.78
2022-10-23T00:31:44.160Z,99506.72
2022-10-23T00:31:56.105Z,99513.78
2022-10-23T00:32:08.006Z,99510.16
2022-10-23T00:32:19.962Z,99511.09
2022-10-23T00:32:50.452Z,99513.63
2022-10-23T00:33:02.359Z,99518.94
2022-10-23T00:33:17.342Z,99509.25
2022-10-23T00:33:29.437Z,99512.78
2022-10-23T00:33:42.708Z,99505.88
2022-10-23T00:33:57.375Z,99516.31
2022-10-23T00:34:09.346Z,99511.88
2022-10-23T00:34:23.720Z,99512.66
2022-10-23T00:34:35.698Z,99506.34
2022-10-23T00:34:50.525Z,99508.03
2022-10-23T00:35:05.363Z,99507.03
2022-10-23T00:35:20.290Z,99506.13
2022-10-23T00:35:34.703Z,99507.91
2022-10-23T00:35:49.749Z,99506.97
2022-10-23T00:36:08.166Z,99506.97
2022-10-23T00:36:21.862Z,99502.81
2022-10-23T00:36:34.331Z,99506.19
2022-10-23T00:36:46.262Z,99500.06
2022-10-23T00:36:58.204Z,99506.13
2022-10-23T00:37:13.217Z,99510.53
2022-10-23T00:37:25.224Z,99505.41
2022-10-23T00:37:37.170Z,99505.41
2022-10-23T00:37:52.227Z,99510.66
2022-10-23T00:38:07.218Z,99504.59
2022-10-23T00:38:19.335Z,99504.59
2022-10-23T00:38:31.240Z,99512.34
2022-10-23T00:38:43.838Z,99510.66
2022-10-23T00:38:55.795Z,99501.19
2022-10-23T00:39:07.844Z,99514.19
2022-10-23T00:39:22.514Z,99515.25
2022-10-23T00:39:34.530Z,99509.09
2022-10-23T00:39:50.930Z,99512.47
2022-10-23T00:40:04.961Z,99509.88
2022-10-23T00:40:17.022Z,99519.41
2022-10-23T00:40:28.941Z,99517.56
2022-10-23T00:40:42.248Z,99505.41
2022-10-23T00:40:54.232Z,99505.41
2022-10-23T00:41:08.342Z,99507.19
2022-10-23T00:41:28.483Z,99508.09
2022-10-23T00:41:40.487Z,99506.34
2022-10-23T00:41:52.740Z,99512.47
2022-10-23T00:42:04.751Z,99513.31
2022-10-23T00:42:18.365Z,99502.03
2022-10-23T00:42:30.318Z,99510.66
2022-10-23T00:42:42.632Z,99500.38
2022-10-23T00:42:54.674Z,99503.81
2022-10-23T00:43:07.183Z,99502.03
2022-10-23T00:43:21.231Z,99509.09
2022-10-23T00:43:33.924Z,99507.41
2022-10-23T00:44:03.238Z,99516.16
2022-10-23T00:44:17.612Z,99508.47
2022-10-23T00:44:29.448Z,99506.78
2022-10-23T00:44:41.306Z,99505.88
2022-10-23T00:44:53.247Z,99512.72
2022-10-23T00:45:25.559Z,99509.09
2022-10-23T00:45:37.470Z,99512.47
2022-10-23T00:45:49.553Z,99503.81
2022-10-23T00:46:02.041Z,99506.34
2022-10-23T00:46:13.995Z,99508.97
2022-10-23T00:46:26.140Z,99515.09
2022-10-23T00:46:39.253Z,99511.72
2022-10-23T00:46:51.244Z,99512.66
2022-10-23T00:47:03.209Z,99509.09
2022-10-23T00:47:15.386Z,99510.81
2022-10-23T00:47:27.358Z,99504.66
2022-10-23T00:47:42.194Z,99512.47
2022-10-23T00:47:55.224Z,99506.41
2022-10-23T00:48:07.143Z,99514.19
2022-10-23T00:48:19.940Z,99511.66
2022-10-23T00:48:31.891Z,99513.41
2022-10-23T00:48:43.894Z,99512.47
2022-10-23T00:48:57.048Z,99513.47
2022-10-23T00:49:09.672Z,99516.16
2022-10-23T00:49:22.979Z,99517.09
2022-10-23T00:49:35.593Z,99511.09
2022-10-23T00:49:48.087Z,99512.72
2022-10-23T00:50:01.620Z,99514.31
2022-10-23T00:50:13.821Z,99511.72
2022-10-23T00:50:26.565Z,99512.47
2022-10-23T00:50:38.705Z,99507.41
2022-10-23T00:50:51.070Z,99510.81
2022-10-23T00:51:03.105Z,99510.03
2022-10-23T00:51:15.086Z,99504.72
2022-10-23T00:51:31.389Z,99505.59
2022-10-23T00:51:47.978Z,99502.09
2022-10-23T00:52:04.481Z,99502.03
2022-10-23T00:52:16.484Z,99499.44
2022-10-23T00:52:29.755Z,99502.03
2022-10-23T00:52:48.846Z,99509.94
2022-10-23T00:53:03.203Z,99504.72
2022-10-23T00:53:16.857Z,99510.03
2022-10-23T00:53:29.040Z,99507.56
2022-10-23T00:53:43.219Z,99507.72
2022-10-23T00:54:06.710Z,99509.38
2022-10-23T00:54:37.857Z,99506.66
2022-10-23T00:54:49.938Z,99512.66
2022-10-23T00:55:02.173Z,99512.66
2022-10-23T00:55:15.383Z,99513.47
2022-10-23T00:55:28.388Z,99510.03
2022-10-23T00:55:46.798Z,99511.72
2022-10-23T00:55:59.890Z,99508.25
2022-10-23T00:56:11.866Z,99508.25
2022-10-23T00:56:25.857Z,99507.25
2022-10-23T00:56:41.871Z,99503.75
2022-10-23T00:56:58.433Z,99502.81
2022-10-23T00:57:15.363Z,99503.75
2022-10-23T00:57:46.626Z,99506.25
2022-10-23T00:57:59.032Z,99506.25
2022-10-23T00:58:11.308Z,99514.19
2022-10-23T00:58:23.258Z,99507.41
2022-10-23T00:58:35.189Z,99511.72
2022-10-23T00:58:47.160Z,99508.25
2022-10-23T00:58:59.123Z,99515.94
2022-10-23T00:59:11.529Z,99511.50
2022-10-23T00:59:24.065Z,99503.59
2022-10-23T00:59:36.149Z,99510.59
2022-10-23T00:59:48.306Z,99515.03
2022-10-23T01:00:00.310Z,99505.59
2022-10-23T01:00:25.018Z,99513.31
2022-10-23T01:00:45.614Z,99505.41
2022-10-23T01:00:57.691Z,99506.34
2022-10-23T01:01:18.303Z,99502.88
2022-10-23T01:01:30.511Z,99504.53
2022-10-23T01:01:42.775Z,99505.59
2022-10-23T01:01:55.405Z,99510.03
2022-10-23T01:02:08.086Z,99509.09
2022-10-23T01:02:21.221Z,99509.88
2022-10-23T01:02:33.439Z,99510.66
2022-10-23T01:02:46.338Z,99508.03
2022-10-23T01:02:58.732Z,99508.03
2022-10-23T01:03:10.996Z,99512.34
2022-10-23T01:03:27.499Z,99504.59
2022-10-23T01:03:39.443Z,99512.47
2022-10-23T01:03:52.005Z,99509.81
2022-10-23T01:04:06.065Z,99514.19
2022-10-23T01:04:18.845Z,99514.19
2022-10-23T01:04:31.924Z,99508.97
2022-10-23T01:04:44.399Z,99510.66
2022-10-23T01:04:56.478Z,99522.03
2022-10-23T01:05:09.050Z,99509.81
2022-10-23T01:05:30.349Z,99513.31
2022-10-23T01:05:54.297Z,99517.72
2022-10-23T01:06:12.066Z,99516.03
2022-10-23T01:06:38.470Z,99508.97
2022-10-23T01:07:12.900Z,99520.25
2022-10-23T01:07:37.123Z,99508.97
2022-10-23T01:07:58.109Z,99506.34
2022-10-23T01:08:29.803Z,99513.41
2022-10-23T01:08:51.811Z,99507.56
2022-10-23T01:09:48.622Z,99503.25
2022-10-23T01:10:15.112Z,99508.47
2022-10-23T01:10:50.039Z,99509.50
2022-10-23T01:11:12.496Z,99510.72
2022-10-23T01:11:33.377Z,99509.16
2022-10-23T01:12:00.157Z,99510.97
2022-10-23T01:12:40.055Z,99502.50
2022-10-23T01:13:02.583Z,99505.00
2022-10-23T01:13:23.766Z,99501.31
2022-10-23T01:13:55.719Z,99506.41
2022-10-23T01:14:37.869Z,99508.38
2022-10-23T01:14:52.410Z,99504.94
2022-10-23T01:15:32.061Z,99499.06
2022-10-23T01:15:56.579Z,99505.13
2022-10-23T01:16:11.039Z,99503.28
2022-10-23T01:16:41.878Z,99504.00
2022-10-23T01:17:24.301Z,99502.22
2022-10-23T01:17:40.986Z,99497.78
2022-10-23T01:18:04.902Z,99497.88
2022-10-23T01:18:23.848Z,99504.72
2022-10-23T01:18:46.888Z,99497.69
2022-10-23T01:19:07.642Z,99498.72
2022-10-23T01:19:42.722Z,99494.84
2022-10-23T01:20:18.999Z,99495.72
2022-10-23T01:20:36.651Z,99501.72
2022-10-23T01:20:57.584Z,99493.00
2022-10-23T01:21:15.849Z,99487.78
2022-10-23T01:22:04.530Z,99489.63
2022-10-23T01:22:48.177Z,99479.19
2022-10-23T01:23:33.766Z,99490.31
2022-10-23T01:23:54.460Z,99483.94
2022-10-23T01:24:22.974Z,99477.88
2022-10-23T01:24:59.564Z,99480.56
2022-10-23T01:25:26.143Z,99478.88
2022-10-23T01:25:56.795Z,99479.78
2022-10-23T01:26:21.466Z,99480.56
2022-10-23T01:26:45.292Z,99476.88
2022-10-23T01:27:41.645Z,99468.03
2022-10-23T01:28:01.639Z,99474.97
2022-10-23T01:28:21.637Z,99481.84
2022-10-23T01:28:36.329Z,99478.47
2022-10-23T01:29:03.515Z,99470.66
2022-10-23T01:29:20.079Z,99472.47
2022-10-23T01:29:31.922Z,99482.91
2022-10-23T01:29:49.667Z,99471.56
2022-10-23T01:30:11.863Z,99474.81
2022-10-23T01:30:23.898Z,99475.81
2022-10-23T01:30:54.132Z,99476.50
2022-10-23T01:31:12.108Z,99470.44
2022-10-23T01:31:43.436Z,99470.50
2022-10-23T01:32:12.962Z,99469.75
2022-10-23T01:32:39.053Z,99474.97
2022-10-23T01:33:00.576Z,99478.47
2022-10-23T01:33:30.325Z,99480.31
2022-10-23T01:33:49.032Z,99475.09
2022-10-23T01:34:10.705Z,99478.59
2022-10-23T01:34:33.691Z,99478.47
2022-10-23T01:35:12.855Z,99483.69
2022-10-23T01:35:37.771Z,99476.63
2022-10-23T01:35:56.893Z,99479.47
2022-10-23T01:36:14.327Z,99481.09
2022-10-23T01:36:29.293Z,99485.41
2022-10-23T01:36:46.832Z,99478.34
2022-10-23T01:37:02.182Z,99491.41
2022-10-23T01:37:19.840Z,99480.13
2022-10-23T01:37:42.512Z,99487.94
2022-10-23T01:37:58.034Z,99486.13
2022-10-23T01:38:16.837Z,99485.25
2022-10-23T01:38:41.777Z,99485.13
2022-10-23T01:39:07.317Z,99488.50
2022-10-23T01:39:25.399Z,99486.88
2022-10-23T01:39:44.186Z,99490.34
2022-10-23T01:40:02.961Z,99491.19
2022-10-23T01:40:27.112Z,99485.00
2022-10-23T01:40:55.630Z,99488.38
2022-10-23T01:41:14.563Z,99486.72
2022-10-23T01:41:32.615Z,99490.03
2022-10-23T01:41:48.871Z,99489.97
2022-10-23T01:42:19.004Z,99483.69
2022-10-23T01:42:36.101Z,99482.75
2022-10-23T01:42:53.077Z,99484.41
2022-10-23T01:43:12.425Z,99483.41
2022-10-23T01:43:30.202Z,99481.03
2022-10-23T01:43:46.979Z,99486.09
2022-10-23T01:44:16.062Z,99483.34
2022-10-23T01:44:48.996Z,99482.28
2022-10-23T01:45:16.082Z,99477.94
2022-10-23T01:45:29.990Z,99480.56
2022-10-23T01:45:53.242Z,99486.50
2022-10-23T01:46:10.436Z,99479.50
2022-10-23T01:46:24.959Z,99484.66
2022-10-23T01:46:37.540Z,99483.81
2022-10-23T01:46:52.586Z,99481.97
2022-10-23T01:47:07.186Z,99481.03
2022-10-23T01:47:23.667Z,99481.81
2022-10-23T01:47:36.195Z,99480.75
2022-10-23T01:47:49.527Z,99485.97
2022-10-23T01:48:04.421Z,99483.28
2022-10-23T01:48:21.536Z,99481.50
2022-10-23T01:48:35.160Z,99488.28
2022-10-23T01:48:52.573Z,99485.66
2022-10-23T01:49:08.627Z,99486.38
2022-10-23T01:49:22.735Z,99485.47
2022-10-23T01:49:37.528Z,99484.47
2022-10-23T01:49:51.441Z,99480.25
2022-10-23T01:50:06.004Z,99486.44
2022-10-23T01:50:20.459Z,99488.16
2022-10-23T01:50:34.605Z,99487.50
2022-10-23T01:50:47.034Z,99483.22
2022-10-23T01:51:01.620Z,99485.06
2022-10-23T01:51:15.546Z,99485.06
2022-10-23T01:51:30.941Z,99478.91
2022-10-23T01:51:48.773Z,99481.38
2022-10-23T01:52:05.445Z,99480.31
2022-10-23T01:52:19.847Z,99484.59
2022-10-23T01:52:31.869Z,99486.44
2022-10-23T01:52:43.955Z,99483.81
2022-10-23T01:52:55.917Z,99480.38
2022-10-23T01:53:08.145Z,99483.81
2022-10-23T01:53:21.793Z,99482.16
2022-10-23T01:53:38.422Z,99482.16
2022-10-23T01:53:55.659Z,99479.47
2022-10-23T01:54:12.384Z,99484.69
2022-10-23T01:54:30.000Z,99479.59
2022-10-23T01:54:44.949Z,99484.00
2022-10-23T01:55:00.884Z,99483.06
2022-10-23T01:55:13.974Z,99474.31
2022-10-23T01:55:26.625Z,99475.31
2022-10-23T01:55:59.144Z,99474.44
2022-10-23T01:56:15.257Z,99480.59
2022-10-23T01:56:30.931Z,99478.84
2022-10-23T01:56:46.532Z,99479.66
2022-10-23T01:56:59.297Z,99475.31
2022-10-23T01:57:14.971Z,99476.16
2022-10-23T01:57:31.234Z,99479.59
2022-10-23T01:57:45.190Z,99474.31
2022-10-23T01:57:58.617Z,99471.69
2022-10-23T01:58:11.463Z,99475.22
2022-10-23T01:58:26.389Z,99481.22
2022-10-23T01:58:39.841Z,99471.63
2022-10-23T01:58:55.317Z,99475.97
2022-10-23T01:59:12.204Z,99471.75
2022-10-23T01:59:36.740Z,99479.84
2022-10-23T01:59:53.508Z,99475.44
2022-10-23T02:00:11.873Z,99472.00
2022-10-23T02:00:23.805Z,99469.38
2022-10-23T02:00:39.809Z,99474.59
2022-10-23T02:00:56.703Z,99471.22
2022-10-23T02:01:11.487Z,99474.59
2022-10-23T02:01:27.786Z,99475.38
2022-10-23T02:01:44.243Z,99469.38
2022-10-23T02:01:59.012Z,99472.91
2022-10-23T02:02:13.400Z,99472.84
2022-10-23T02:02:27.568Z,99466.00
2022-10-23T02:02:43.517Z,99468.63
2022-10-23T02:02:57.541Z,99471.22
2022-10-23T02:03:10.559Z,99473.06
2022-10-23T02:03:23.366Z,99471.22
2022-10-23T02:03:37.277Z,99468.44
2022-10-23T02:03:50.920Z,99472.78
2022-10-23T02:04:07.038Z,99468.38
2022-10-23T02:04:25.617Z,99473.53
2022-10-23T02:04:42.261Z,99474.31
2022-10-23T02:05:18.433Z,99470.94
2022-10-23T02:05:31.220Z,99470.94
2022-10-23T02:05:44.195Z,99471.75
2022-10-23T02:05:56.186Z,99464.00
2022-10-23T02:06:08.305Z,99467.69
2022-10-23T02:06:20.359Z,99473.84
2022-10-23T02:06:32.598Z,99472.91
2022-10-23T02:06:44.495Z,99471.06
2022-10-23T02:06:56.728Z,99478.00
2022-10-23T02:07:08.987Z,99472.78
2022-10-23T02:07:21.193Z,99470.94
2022-10-23T02:07:34.177Z,99463.09
2022-10-23T02:07:46.541Z,99467.31
2022-10-23T02:08:00.553Z,99470.75
2022-10-23T02:08:12.748Z,99469.78
2022-10-23T02:08:25.788Z,99468.00
2022-10-23T02:08:38.147Z,99471.47
2022-10-23T02:08:50.628Z,99470.63
2022-10-23T02:09:03.215Z,99471.47
2022-10-23T02:09:15.540Z,99468.91
2022-10-23T02:09:27.714Z,99471.69
2022-10-23T02:09:39.976Z,99467.38
2022-10-23T02:09:52.202Z,99473.47
2022-10-23T02:10:06.247Z,99470.75
2022-10-23T02:10:19.726Z,99473.38
2022-10-23T02:10:57.155Z,99467.38
2022-10-23T02:11:09.055Z,99466.59
2022-10-23T02:11:21.777Z,99464.94
2022-10-23T02:11:42.468Z,99462.31
2022-10-23T02:12:02.726Z,99467.53
2022-10-23T02:12:24.642Z,99457.88
2022-10-23T02:13:01.000Z,99468.31
2022-10-23T02:13:25.539Z,99459.72
2022-10-23T02:13:37.435Z,99460.47
2022-10-23T02:14:10.167Z,99452.00
2022-10-23T02:14:35.319Z,99451.34
2022-10-23T02:15:00.136Z,99451.34
2022-10-23T02:15:26.628Z,99447.09
2022-10-23T02:15:48.893Z,99448.63
2022-10-23T02:16:20.021Z,99445.88
2022-10-23T02:16:44.309Z,99441.41
2022-10-23T02:17:06.471Z,99440.72
2022-10-23T02:17:45.780Z,99444.03
2022-10-23T02:18:29.918Z,99440.28
2022-10-23T02:18:52.463Z,99435.72
2022-10-23T02:19:24.785Z,99433.88
2022-10-23T02:20:12.562Z,99433.81
2022-10-23T02:20:27.517Z,99432.06
2022-10-23T02:21:05.008Z,99431.91
2022-10-23T02:21:23.272Z,99429.28
2022-10-23T02:21:41.259Z,99436.97
2022-10-23T02:21:59.027Z,99435.28
2022-10-23T02:22:14.952Z,99436.97
2022-10-23T02:22:35.178Z,99429.91
2022-10-23T02:23:00.108Z,99434.19
2022-10-23T02:23:20.947Z,99437.59
2022-10-23T02:23:38.460Z,99437.44
2022-10-23T02:24:02.989Z,99439.13
2022-10-23T02:24:21.194Z,99441.72
2022-10-23T02:24:39.417Z,99440.66
2022-10-23T02:24:51.276Z,99445.59
2022-10-23T02:25:11.237Z,99444.19
2022-10-23T02:25:33.807Z,99446.03
2022-10-23T02:25:57.270Z,99447.56
2022-10-23T02:26:12.043Z,99439.66
2022-10-23T02:26:29.793Z,99444.72
2022-10-23T02:26:49.693Z,99447.44
2022-10-23T02:27:05.357Z,99442.59
2022-10-23T02:27:24.396Z,99444.19
2022-10-23T02:27:44.950Z,99440.81
2022-10-23T02:28:01.080Z,99445.91
2022-10-23T02:28:17.907Z,99438.81
2022-10-23T02:28:37.666Z,99436.97
2022-10-23T02:28:53.665Z,99442.88
2022-10-23T02:29:27.697Z,99435.91
2022-10-23T02:29:51.832Z,99436.81
2022-10-23T02:30:08.076Z,99440.06
2022-10-23T02:30:20.536Z,99434.81
2022-10-23T02:30:35.683Z,99439.13
2022-10-23T02:30:50.403Z,99435.66
2022-10-23T02:31:05.385Z,99432.97
2022-10-23T02:31:21.443Z,99425.91
2022-10-23T02:31:33.687Z,99432.03
2022-10-23T02:31:45.907Z,99434.97
2022-10-23T02:31:57.897Z,99429.59
2022-10-23T02:32:11.287Z,99432.88
2022-10-23T02:32:26.592Z,99430.25
2022-10-23T02:32:44.951Z,99432.97
2022-10-23T02:32:58.329Z,99432.97
2022-10-23T02:33:12.268Z,99428.53
2022-10-23T02:33:27.439Z,99434.59
2022-10-23T02:33:39.692Z,99433.56
2022-10-23T02:33:51.802Z,99429.28
2022-10-23T02:34:04.130Z,99437.91
2022-10-23T02:34:16.334Z,99435.19
2022-10-23T02:34:28.457Z,99431.72
2022-10-23T02:34:40.650Z,99440.41
2022-10-23T02:34:52.943Z,99435.97
2022-10-23T02:35:05.700Z,99438.59
2022-10-23T02:35:20.056Z,99441.09
2022-10-23T02:35:32.185Z,99439.56
2022-10-23T02:35:45.014Z,99434.34
2022-10-23T02:35:57.129Z,99440.56
2022-10-23T02:36:09.526Z,99441.97
2022-10-23T02:36:21.598Z,99436.75
2022-10-23T02:36:33.644Z,99441.72
2022-10-23T02:36:46.184Z,99445.19
2022-10-23T02:36:58.201Z,99439.75
2022-10-23T02:37:10.151Z,99444.03
2022-10-23T02:37:34.415Z,99441.28
2022-10-23T02:37:54.071Z,99438.97
2022-10-23T02:38:29.730Z,99437.03
2022-10-23T02:38:43.921Z,99436.97
2022-10-23T02:38:55.921Z,99436.50
2022-10-23T02:39:07.884Z,99437.59
2022-10-23T02:39:24.488Z,99442.66
2022-10-23T02:39:36.595Z,99433.88
2022-10-23T02:39:49.192Z,99439.88
2022-10-23T02:40:01.261Z,99441.41
2022-10-23T02:40:13.267Z,99437.78
2022-10-23T02:40:34.300Z,99436.19
2022-10-23T02:40:47.265Z,99435.19
2022-10-23T02:41:19.072Z,99429.88
2022-10-23T02:41:41.071Z,99437.72
2022-10-23T02:42:00.214Z,99438.41
2022-10-23T02:42:34.063Z,99439.25
2022-10-23T02:43:00.118Z,99439.94
2022-10-23T02:43:22.982Z,99439.13
2022-10-23T02:43:43.559Z,99433.06
2022-10-23T02:44:25.226Z,99434.50
2022-10-23T02:44:55.382Z,99427.38
2022-10-23T02:45:17.630Z,99428.72
2022-10-23T02:46:20.226Z,99429.75
2022-10-23T02:46:45.591Z,99431.34
2022-10-23T02:47:10.573Z,99426.81
2022-10-23T02:47:25.315Z,99430.34
2022-10-23T02:48:01.786Z,99426.13
2022-10-23T02:48:25.585Z,99426.81
2022-10-23T02:48:46.275Z,99423.44
2022-10-23T02:49:11.994Z,99432.03
2022-10-23T02:49:26.172Z,99425.28
2022-10-23T02:49:49.164Z,99425.28
2022-10-23T02:50:03.993Z,99423.56
2022-10-23T02:50:24.450Z,99420.06
2022-10-23T02:50:54.854Z,99421.72
2022-10-23T02:51:18.136Z,99419.28
2022-10-23T02:51:49.954Z,99427.28
2022-10-23T02:52:24.153Z,99423.75
2022-10-23T02:53:13.291Z,99420.06
2022-10-23T02:53:53.667Z,99418.34
2022-10-23T02:54:08.417Z,99416.66
2022-10-23T02:54:29.403Z,99418.84
2022-10-23T02:55:07.295Z,99415.59
2022-10-23T02:55:41.419Z,99417.81
2022-10-23T02:56:11.914Z,99409.66
2022-10-23T02:56:44.256Z,99412.06
2022-10-23T02:57:11.210Z,99407.94
2022-10-23T02:57:43.041Z,99409.53
2022-10-23T02:58:04.123Z,99409.91
2022-10-23T02:58:40.684Z,99408.13
2022-10-23T02:59:21.388Z,99416.38
2022-10-23T02:59:59.210Z,99414.38
2022-10-23T03:00:20.000Z,99415.59
2022-10-23T03:00:34.407Z,99415.28
2022-10-23T03:00:52.558Z,99411.66
2022-10-23T03:01:11.446Z,99411.91
2022-10-23T03:01:29.157Z,99411.06
2022-10-23T03:01:49.646Z,99408.38
2022-10-23T03:02:11.894Z,99410.09
2022-10-23T03:02:36.485Z,99407.59
2022-10-23T03:03:15.361Z,99412.84
2022-10-23T03:03:32.733Z,99412.84
2022-10-23T03:04:00.669Z,99416.97
2022-10-23T03:04:14.892Z,99414.53
2022-10-23T03:04:28.561Z,99412.06
2022-10-23T03:04:42.835Z,99409.47
2022-10-23T03:04:56.464Z,99410.59
2022-10-23T03:05:12.459Z,99412.22
2022-10-23T03:05:29.823Z,99412.00
2022-10-23T03:05:44.806Z,99404.38
2022-10-23T03:05:56.897Z,99410.28
2022-10-23T03:06:09.067Z,99414.81
2022-10-23T03:06:22.776Z,99413.78
2022-10-23T03:06:34.846Z,99406.06
2022-10-23T03:06:47.622Z,99413.28
2022-10-23T03:06:59.788Z,99416.00
2022-10-23T03:07:13.953Z,99409.31
2022-10-23T03:07:26.514Z,99410.06
2022-10-23T03:07:40.299Z,99410.53
2022-10-23T03:07:52.870Z,99412.06
2022-10-23T03:08:09.862Z,99411.22
2022-10-23T03:08:22.463Z,99410.22
2022-10-23T03:08:45.202Z,99415.44
2022-10-23T03:09:04.470Z,99407.47
2022-10-23T03:09:16.498Z,99407.59
2022-10-23T03:09:28.595Z,99409.16
2022-10-23T03:09:40.945Z,99406.59
2022-10-23T03:09:52.953Z,99410.28
2022-10-23T03:10:05.524Z,99405.13
2022-10-23T03:10:17.753Z,99412.22
2022-10-23T03:10:29.722Z,99412.38
2022-10-23T03:10:42.701Z,99411.59
2022-10-23T03:10:54.738Z,99411.44
2022-10-23T03:11:06.655Z,99406.38
2022-10-23T03:11:18.585Z,99413.06
2022-10-23T03:11:30.674Z,99416.53
2022-10-23T03:11:42.671Z,99411.31
2022-10-23T03:11:54.734Z,99418.19
2022-10-23T03:12:06.818Z,99413.66
2022-10-23T03:12:18.807Z,99417.06
2022-10-23T03:12:30.942Z,99409.31
2022-10-23T03:12:43.344Z,99412.69
2022-10-23T03:12:55.487Z,99408.81
2022-10-23T03:13:09.364Z,99417.38
2022-10-23T03:13:21.541Z,99409.00
2022-10-23T03:13:33.470Z,99418.81
2022-10-23T03:13:45.561Z,99419.81
2022-10-23T03:13:57.585Z,99413.06
2022-10-23T03:14:13.720Z,99410.22
2022-10-23T03:14:25.735Z,99413.59
2022-10-23T03:14:37.752Z,99412.91
2022-10-23T03:14:49.957Z,99415.13
2022-10-23T03:15:02.255Z,99415.00
2022-10-23T03:15:15.292Z,99416.59
2022-10-23T03:15:27.274Z,99413.16
2022-10-23T03:15:39.262Z,99408.06
2022-10-23T03:15:51.252Z,99411.44
2022-10-23T03:16:03.233Z,99417.13
2022-10-23T03:16:15.495Z,99413.13
2022-10-23T03:16:27.603Z,99413.75
2022-10-23T03:16:39.679Z,99408.66
2022-10-23T03:16:51.584Z,99407.13
2022-10-23T03:17:04.395Z,99406.38
2022-10-23T03:17:16.441Z,99407.13
2022-10-23T03:17:28.432Z,99401.22
2022-10-23T03:17:40.464Z,99403.63
2022-10-23T03:17:52.396Z,99404.75
2022-10-23T03:18:04.349Z,99403.75
2022-10-23T03:18:16.321Z,99404.75
2022-10-23T03:18:28.405Z,99407.13
2022-10-23T03:18:40.403Z,99404.16
2022-10-23T03:18:52.381Z,99404.78